Time;durP1;ratioP1;P1;durP2;ratioP2;P2;SDS_P1;SDS_P2;PMS_P1;PMS_P2;Temp;Humidity;BMP_temperature;BMP_pressure;BME280_temperature;BME280_humidity;BME280_pressure;Samples;Min_cycle;Max_cycle;Signal;HPM_P1;HPM_P2
2021/10/07 00:07:28;;;;;;;19.40;13.70;;;;;;;10.54;80.29;100150.21;477726;1190;142678;-61
2021/10/07 00:17:34;;;;;;;14.30;11.30;;;;;;;10.53;80.25;100149.44;463661;1190;142930;-60
2021/10/07 00:27:41;;;;;;;13.30;11.80;;;;;;;10.49;80.18;100150.48;466984;1190;141923;-61
2021/10/07 00:48:10;;;;;;;19.70;12.10;;;;;;;10.43;79.99;100151.02;473925;1190;142163;-60
2021/10/07 00:58:17;;;;;;;13.40;11.90;;;;;;;10.42;79.93;100147.73;460599;1192;141556;-59
2021/10/07 01:08:22;;;;;;;20.50;12.10;;;;;;;10.40;79.71;100152.19;462954;1190;145549;-60
2021/10/07 01:18:28;;;;;;;22.20;13.40;;;;;;;10.34;79.45;100154.79;461359;1190;141501;-59
2021/10/07 01:28:34;;;;;;;16.80;11.20;;;;;;;10.27;79.33;100153.77;460742;1192;142123;-59
2021/10/07 01:38:40;;;;;;;17.20;12.20;;;;;;;10.21;79.18;100162.10;460241;1190;142558;-60
2021/10/07 01:48:46;;;;;;;19.50;13.10;;;;;;;10.15;79.02;100161.38;461141;1191;141926;-60
2021/10/07 01:58:54;;;;;;;17.90;11.50;;;;;;;10.13;78.84;100169.56;470604;1190;141565;-61
2021/10/07 02:08:59;;;;;;;22.80;13.20;;;;;;;10.07;78.63;100172.64;474067;1189;142705;-60
2021/10/07 02:19:05;;;;;;;16.70;10.80;;;;;;;10.06;78.48;100180.73;467622;1190;142190;-60
2021/10/07 02:29:11;;;;;;;14.70;10.80;;;;;;;10.03;78.25;100193.14;466158;1191;142180;-60
2021/10/07 02:39:17;;;;;;;19.30;10.90;;;;;;;10.02;78.05;100200.70;473552;1190;143402;-61
2021/10/07 02:49:23;;;;;;;12.70;10.50;;;;;;;10.02;78.01;100210.52;464387;1190;146434;-60
2021/10/07 02:59:29;;;;;;;15.80;11.80;;;;;;;10.02;77.96;100222.58;462633;1190;142551;-60
2021/10/07 03:09:35;;;;;;;12.80;10.10;;;;;;;10.01;77.74;100231.22;466338;1190;144329;-61
2021/10/07 03:19:41;;;;;;;22.60;11.80;;;;;;;10.00;77.51;100237.05;474594;1190;141989;-59
2021/10/07 03:29:47;;;;;;;18.30;12.40;;;;;;;9.99;77.41;100244.95;475320;1190;142552;-60
2021/10/07 03:39:52;;;;;;;15.30;10.90;;;;;;;9.99;77.12;100254.07;466760;1190;141996;-62
2021/10/07 03:49:58;;;;;;;12.90;11.20;;;;;;;9.95;76.84;100269.63;465513;1190;143053;-61
2021/10/07 04:00:06;;;;;;;14.50;11.50;;;;;;;9.90;76.86;100273.90;476260;1190;141359;-60
2021/10/07 04:10:12;;;;;;;18.10;10.40;;;;;;;9.90;76.77;100286.50;464157;1190;143687;-60
2021/10/07 04:20:18;;;;;;;17.30;11.20;;;;;;;9.88;76.55;100298.31;462235;1190;141632;-60
2021/10/07 04:30:24;;;;;;;15.60;10.60;;;;;;;9.87;76.45;100308.00;464638;1190;142076;-60
2021/10/07 04:40:30;;;;;;;13.70;10.50;;;;;;;9.86;76.27;100315.55;471400;1190;142296;-60
2021/10/07 04:50:36;;;;;;;13.80;9.80;;;;;;;9.84;75.91;100321.80;464147;1190;143689;-60
2021/10/07 05:00:42;;;;;;;17.00;10.70;;;;;;;9.79;76.07;100338.44;463276;1190;141172;-61
2021/10/07 05:10:48;;;;;;;16.20;10.30;;;;;;;9.72;75.81;100353.11;475291;1190;142481;-59
2021/10/07 05:20:56;;;;;;;15.00;11.30;;;;;;;9.68;75.78;100366.91;467483;1190;141591;-60
2021/10/07 05:31:03;;;;;;;13.10;9.70;;;;;;;9.71;75.55;100378.19;473890;1190;142510;-59
2021/10/07 05:41:09;;;;;;;12.80;11.30;;;;;;;9.77;75.48;100386.45;460909;1190;141232;-60
2021/10/07 05:51:15;;;;;;;13.60;10.00;;;;;;;9.84;75.18;100400.25;463256;1190;142109;-60
2021/10/07 06:01:21;;;;;;;12.90;10.00;;;;;;;9.93;74.80;100398.09;460346;1192;141805;-59
2021/10/07 06:11:28;;;;;;;12.70;9.10;;;;;;;9.97;74.38;100404.74;462550;1191;141682;-60
2021/10/07 06:21:34;;;;;;;12.40;9.60;;;;;;;9.91;74.07;100415.48;462252;1190;142588;-63
2021/10/07 06:31:40;;;;;;;14.20;9.80;;;;;;;9.92;74.00;100427.20;465554;1190;140410;-65
2021/10/07 06:41:47;;;;;;;13.80;8.70;;;;;;;9.99;73.75;100434.92;463474;1190;145280;-65
2021/10/07 06:51:53;;;;;;;18.60;9.80;;;;;;;10.05;73.49;100439.16;462031;1191;142347;-58
2021/10/07 07:01:59;;;;;;;13.00;9.60;;;;;;;10.12;73.22;100446.86;461429;1192;142487;-59
2021/10/07 07:12:06;;;;;;;12.10;9.60;;;;;;;10.19;73.07;100457.93;476587;1190;145043;-60
2021/10/07 07:22:14;;;;;;;12.40;8.10;;;;;;;10.19;72.54;100460.87;465683;1190;142798;-66
2021/10/07 07:32:20;;;;;;;12.30;8.20;;;;;;;10.28;72.38;100471.48;462858;1190;140630;-73
2021/10/07 07:42:26;;;;;;;12.20;7.40;;;;;;;10.45;72.30;100474.38;477813;1190;141602;-74
2021/10/07 07:52:33;;;;;;;14.60;8.40;;;;;;;10.66;71.88;100483.30;477805;1190;144988;-72
2021/10/07 08:02:39;;;;;;;11.50;8.00;;;;;;;10.93;71.17;100501.59;476207;1190;141685;-72
2021/10/07 08:12:45;;;;;;;7.50;6.60;;;;;;;11.11;70.65;100517.14;460306;1184;142883;-70
2021/10/07 08:22:51;;;;;;;12.00;7.70;;;;;;;11.28;70.37;100524.85;461430;1192;140772;-71
2021/10/07 08:32:59;;;;;;;8.90;6.90;;;;;;;11.38;69.84;100522.92;463485;1178;141040;-72
2021/10/07 08:43:09;;;;;;;11.40;8.40;;;;;;;11.71;69.49;100522.09;467640;1190;141139;-73
2021/10/07 08:53:15;;;;;;;10.30;7.30;;;;;;;11.68;68.51;100531.36;466375;1190;141968;-74
2021/10/07 09:03:24;;;;;;;12.30;7.50;;;;;;;11.72;68.57;100543.23;462784;1185;142155;-74
2021/10/07 09:13:30;;;;;;;10.90;7.70;;;;;;;11.73;68.30;100543.36;469561;1190;141381;-72
2021/10/07 09:23:37;;;;;;;15.30;8.20;;;;;;;11.73;68.37;100545.14;465724;1191;140027;-73
2021/10/07 09:33:44;;;;;;;10.50;8.50;;;;;;;11.91;68.39;100551.89;473951;1190;141057;-66
2021/10/07 09:43:54;;;;;;;11.40;8.00;;;;;;;12.16;67.92;100558.98;457968;1191;10002614;-60
2021/10/07 09:54:05;;;;;;;14.40;8.50;;;;;;;12.42;67.58;100563.15;467394;1190;142436;-60
2021/10/07 10:04:12;;;;;;;12.70;8.30;;;;;;;12.80;67.28;100568.77;472167;1190;141841;-68
2021/10/07 10:14:21;;;;;;;10.80;8.10;;;;;;;13.28;66.40;100573.20;461539;1191;143165;-66
2021/10/07 10:24:27;;;;;;;14.70;9.10;;;;;;;13.87;65.57;100573.02;465743;1191;142490;-68
2021/10/07 10:34:41;;;;;;;10.00;7.70;;;;;;;14.21;64.73;100575.14;477554;1191;141816;-68
2021/10/07 10:44:51;;;;;;;15.60;8.70;;;;;;;14.32;63.81;100579.55;472133;1190;142322;-68
2021/10/07 10:54:59;;;;;;;10.30;8.90;;;;;;;14.55;63.50;100588.80;477726;1190;141230;-68
2021/10/07 11:05:20;;;;;;;13.30;8.40;;;;;;;14.71;62.52;100597.17;477699;1190;141394;-68
2021/10/07 11:15:28;;;;;;;13.00;9.50;;;;;;;14.68;62.06;100598.20;468500;1191;142395;-68
2021/10/07 11:25:35;;;;;;;13.50;9.60;;;;;;;14.83;61.37;100604.84;477750;1190;145227;-69
2021/10/07 11:35:41;;;;;;;9.70;8.70;;;;;;;14.79;60.77;100607.23;463686;1191;141995;-67
2021/10/07 11:45:49;;;;;;;13.70;7.80;;;;;;;14.42;60.64;100614.63;474003;1190;185096;-68
2021/10/07 11:55:56;;;;;;;12.20;8.80;;;;;;;14.32;60.80;100608.09;477948;1190;141923;-69
2021/10/07 12:06:04;;;;;;;18.20;9.90;;;;;;;14.31;60.65;100605.64;476726;1190;140578;-69
2021/10/07 12:16:14;;;;;;;14.50;9.30;;;;;;;13.88;60.57;100610.64;477883;1190;145619;-69
2021/10/07 12:26:34;;;;;;;10.10;8.50;;;;;;;13.55;61.28;100611.72;469931;1190;141781;-68
2021/10/07 12:36:42;;;;;;;14.00;8.60;;;;;;;13.40;61.53;100614.87;477624;1190;142018;-67
2021/10/07 12:46:48;;;;;;;;;;;;;;;13.35;61.90;100607.09;464598;1190;145142;-66
2021/10/07 12:56:54;;;;;;;11.50;9.30;;;;;;;13.47;61.94;100602.31;470270;1190;129144;-61
2021/10/07 13:07:09;;;;;;;10.80;7.90;;;;;;;13.58;61.76;100598.55;477741;1190;141517;-60
2021/10/07 13:17:14;;;;;;;11.30;8.40;;;;;;;13.74;61.34;100600.21;461912;1190;141752;-63
2021/10/07 13:27:23;;;;;;;12.30;8.20;;;;;;;13.86;61.21;100604.23;477920;1190;142368;-65
2021/10/07 13:37:29;;;;;;;9.80;7.80;;;;;;;13.92;60.89;100613.89;476356;1190;141915;-61
2021/10/07 13:47:35;;;;;;;12.00;8.80;;;;;;;14.02;60.80;100618.41;470871;1190;142144;-63
2021/10/07 13:57:40;;;;;;;11.40;9.20;;;;;;;14.04;60.74;100629.35;477780;1190;141989;-68
2021/10/07 14:07:47;;;;;;;13.70;9.00;;;;;;;14.09;60.58;100634.71;477719;1191;186483;-64
2021/10/07 14:17:53;;;;;;;11.40;7.50;;;;;;;14.08;60.45;100647.81;475880;1186;142446;-61
2021/10/07 14:28:03;;;;;;;12.20;7.60;;;;;;;14.04;60.59;100654.34;466628;1191;141612;-63
2021/10/07 14:38:09;;;;;;;7.70;6.00;;;;;;;13.93;60.06;100665.38;477618;1190;142969;-63
2021/10/07 14:48:15;;;;;;;5.40;4.50;;;;;;;13.81;59.05;100668.95;477650;1190;184774;-67
2021/10/07 14:58:21;;;;;;;9.20;6.10;;;;;;;13.63;58.45;100671.42;447454;1190;10001960;-64
2021/10/07 15:08:27;;;;;;;7.80;5.40;;;;;;;13.44;58.42;100678.33;461667;1190;140310;-62
2021/10/07 15:18:35;;;;;;;5.90;4.40;;;;;;;13.20;58.34;100676.85;477725;1190;141416;-65
2021/10/07 15:28:41;;;;;;;9.60;5.20;;;;;;;12.92;58.40;100692.83;467900;1183;140903;-69
2021/10/07 15:38:47;;;;;;;9.00;5.10;;;;;;;12.67;58.77;100706.51;463822;1187;141699;-61
2021/10/07 15:48:52;;;;;;;10.60;5.20;;;;;;;12.38;59.09;100722.85;461055;1190;139973;-64
2021/10/07 15:59:00;;;;;;;9.40;5.40;;;;;;;12.05;59.53;100728.58;464708;1191;141378;-62
2021/10/07 16:09:08;;;;;;;10.20;5.50;;;;;;;11.73;59.40;100749.98;463316;1190;140967;-63
2021/10/07 16:19:14;;;;;;;9.50;6.20;;;;;;;11.43;59.46;100759.55;462984;1192;143116;-62
2021/10/07 16:29:20;;;;;;;13.00;7.10;;;;;;;11.14;59.74;100774.58;463999;1190;140715;-63
2021/10/07 16:39:26;;;;;;;15.70;7.70;;;;;;;10.88;60.00;100780.19;477790;1190;141399;-63
2021/10/07 16:49:32;;;;;;;14.30;8.60;;;;;;;10.56;60.53;100796.50;474913;1190;144740;-63
2021/10/07 16:59:40;;;;;;;12.10;8.10;;;;;;;10.30;60.75;100810.73;471050;1190;141790;-64
2021/10/07 17:09:47;;;;;;;14.00;7.70;;;;;;;10.03;60.91;100823.08;468874;1192;140890;-65
2021/10/07 17:19:54;;;;;;;11.90;8.20;;;;;;;9.83;60.89;100837.17;471421;1191;142184;-65
2021/10/07 17:29:59;;;;;;;18.80;9.80;;;;;;;9.63;61.06;100850.56;466006;1191;141865;-64
2021/10/07 17:40:07;;;;;;;16.40;7.90;;;;;;;9.37;61.21;100852.45;462025;1191;141823;-64
2021/10/07 17:50:15;;;;;;;17.30;8.90;;;;;;;9.11;61.86;100861.62;466172;1191;142208;-64
2021/10/07 18:00:21;;;;;;;16.80;9.60;;;;;;;8.94;62.38;100862.45;467599;1190;141981;-59
2021/10/07 18:10:29;;;;;;;26.90;12.20;;;;;;;8.78;62.71;100861.96;461077;1190;141539;-58
2021/10/07 18:20:34;;;;;;;;;;;;;;;8.55;63.12;100859.09;476911;1190;198397;-58
2021/10/07 18:30:40;;;;;;;19.70;9.50;;;;;;;8.39;63.10;100855.08;477994;1190;130033;-60
2021/10/07 18:40:46;;;;;;;12.80;9.50;;;;;;;8.39;62.90;100856.66;472872;1190;143776;-60
2021/10/07 18:50:51;;;;;;;18.50;9.30;;;;;;;8.26;62.88;100867.56;476704;1190;142652;-60
2021/10/07 19:00:58;;;;;;;20.20;11.20;;;;;;;8.13;63.33;100876.02;467733;1190;10001566;-65
2021/10/07 19:11:05;;;;;;;18.10;10.10;;;;;;;8.00;63.54;100875.58;477713;1190;142733;-59
2021/10/07 19:21:11;;;;;;;31.50;11.60;;;;;;;7.88;63.65;100876.48;477618;1190;142079;-58
2021/10/07 19:31:17;;;;;;;21.20;10.10;;;;;;;7.83;63.66;100874.91;476476;1192;140629;-59
2021/10/07 19:41:25;;;;;;;23.20;10.20;;;;;;;7.77;63.62;100880.31;460216;1192;141353;-58
2021/10/07 19:51:30;;;;;;;18.10;8.90;;;;;;;7.68;63.61;100877.80;469107;1190;141588;-61
2021/10/07 20:01:36;;;;;;;23.00;8.50;;;;;;;7.60;63.56;100876.66;468047;1191;141953;-59
2021/10/07 20:11:42;;;;;;;17.80;9.20;;;;;;;7.50;63.59;100869.65;474280;1190;141124;-59
2021/10/07 20:21:49;;;;;;;22.10;9.00;;;;;;;7.40;63.69;100885.45;469869;1190;141561;-58
2021/10/07 20:31:55;;;;;;;18.80;10.60;;;;;;;7.32;63.72;100889.17;474488;1190;141502;-58
2021/10/07 20:42:01;;;;;;;18.70;10.10;;;;;;;7.22;63.81;100893.30;459713;1190;142974;-60
2021/10/07 20:52:07;;;;;;;16.30;9.20;;;;;;;7.06;63.91;100893.23;474332;1190;141146;-61
2021/10/07 21:02:13;;;;;;;18.80;9.80;;;;;;;6.92;64.10;100898.67;476566;1190;161997;-57
2021/10/07 21:12:19;;;;;;;19.20;11.40;;;;;;;6.84;64.20;100900.27;473769;1190;140957;-58
2021/10/07 21:22:26;;;;;;;22.10;13.00;;;;;;;6.75;64.26;100905.91;467083;1190;141808;-55
2021/10/07 21:32:32;;;;;;;15.30;10.20;;;;;;;6.62;64.36;100908.34;460257;1190;142701;-56
2021/10/07 21:42:38;;;;;;;18.70;11.10;;;;;;;6.49;64.55;100913.89;473346;1190;141316;-57
2021/10/07 21:52:44;;;;;;;18.30;10.30;;;;;;;6.39;64.58;100917.11;477372;1191;140487;-59
2021/10/07 22:02:51;;;;;;;20.60;9.80;;;;;;;6.31;64.57;100914.69;477035;1190;141680;-60
2021/10/07 22:12:57;;;;;;;18.00;11.20;;;;;;;6.24;64.60;100918.17;477416;1191;144716;-61
2021/10/07 22:23:03;;;;;;;21.00;10.40;;;;;;;6.14;64.50;100926.06;474438;1190;145283;-58
2021/10/07 22:33:09;;;;;;;16.20;10.60;;;;;;;6.02;64.52;100930.32;461774;1178;141568;-59
2021/10/07 22:43:15;;;;;;;15.20;8.30;;;;;;;5.93;64.59;100930.88;474058;1191;141136;-59
2021/10/07 22:53:21;;;;;;;17.20;10.60;;;;;;;5.83;64.58;100935.77;477062;1190;143332;-60
2021/10/07 23:03:27;;;;;;;14.40;8.50;;;;;;;5.80;64.61;100937.09;477777;1190;141945;-58
2021/10/07 23:13:33;;;;;;;16.80;9.70;;;;;;;5.69;64.62;100945.13;472891;1190;144090;-58
2021/10/07 23:23:41;;;;;;;14.90;9.60;;;;;;;5.56;64.66;100947.31;476631;1190;141821;-59
2021/10/07 23:33:47;;;;;;;14.50;10.10;;;;;;;5.48;64.89;100952.34;468430;1190;141859;-60
2021/10/07 23:43:53;;;;;;;20.30;9.50;;;;;;;5.37;65.08;100955.35;477398;1190;141601;-59
2021/10/07 23:53:59;;;;;;;14.00;8.80;;;;;;;5.23;65.34;100959.63;470680;1190;143515;-59
